Time;durP1;ratioP1;P1;durP2;ratioP2;P2;SDS_P1;SDS_P2;PMS_P1;PMS_P2;Temp;Humidity;BMP_temperature;BMP_pressure;BME280_temperature;BME280_humidity;BME280_pressure;Samples;Min_cycle;Max_cycle;Signal;HPM_P1;HPM_P2
2023/08/14 00:01:19;;;;;;;3.50;1.50;;;19.20;99.90;;;18.47;100.00;97805.50;5001376;28;20060;-71
2023/08/14 00:03:46;;;;;;;2.78;1.40;;;19.20;99.90;;;18.31;100.00;97804.91;5003748;28;20501;-71
2023/08/14 00:06:13;;;;;;;6.30;2.03;;;19.10;99.90;;;18.49;100.00;97814.13;5014850;28;20054;-71
2023/08/14 00:08:40;;;;;;;7.28;1.70;;;19.10;99.90;;;18.48;100.00;97819.50;4998482;28;20050;-71
2023/08/14 00:11:07;;;;;;;3.63;1.40;;;19.10;99.90;;;18.45;100.00;97820.56;5001105;28;21159;-71
2023/08/14 00:13:53;;;;;;;4.28;1.60;;;19.10;99.90;;;18.49;100.00;97822.00;5004080;28;20583;-71
2023/08/14 00:16:20;;;;;;;3.30;1.30;;;19.10;99.90;;;18.48;100.00;97822.13;5018470;28;20046;-71
2023/08/14 00:18:48;;;;;;;5.82;1.73;;;19.10;99.90;;;18.41;100.00;97813.84;5004649;28;20667;-71
2023/08/14 00:21:16;;;;;;;4.90;1.55;;;19.10;99.90;;;18.40;100.00;97817.41;4998575;28;20042;-70
2023/08/14 00:23:43;;;;;;;6.60;1.63;;;19.00;99.90;;;18.35;100.00;97817.72;5004382;28;20141;-71
2023/08/14 00:26:14;;;;;;;5.93;1.70;;;19.00;99.90;;;18.50;100.00;97823.72;5007770;28;20043;-71
2023/08/14 00:28:41;;;;;;;3.70;1.50;;;19.00;99.90;;;18.53;100.00;97818.22;5004319;28;20143;-71
2023/08/14 00:31:08;;;;;;;6.22;1.25;;;19.10;99.90;;;18.52;100.00;97818.31;5021931;28;20054;-70
2023/08/14 00:33:35;;;;;;;2.83;1.60;;;19.10;99.90;;;18.63;100.00;97820.19;5005191;28;20140;-71
2023/08/14 00:36:05;;;;;;;6.38;1.58;;;19.20;99.90;;;18.70;100.00;97811.78;5005219;28;20045;-71
2023/08/14 00:38:32;;;;;;;4.88;1.50;;;19.20;99.90;;;18.65;100.00;97813.03;5019562;28;20061;-71
2023/08/14 00:41:03;;;;;;;5.68;1.80;;;19.20;99.90;;;18.65;100.00;97813.88;5005241;28;20050;-72
2023/08/14 00:43:30;;;;;;;3.47;1.70;;;19.30;99.90;;;18.74;100.00;97809.75;4996137;28;20136;-71
2023/08/14 00:45:57;;;;;;;5.53;1.60;;;19.30;99.90;;;18.74;100.00;97807.13;5029087;28;20140;-71
2023/08/14 00:48:25;;;;;;;9.02;2.25;;;19.30;99.90;;;18.75;100.00;97812.28;4999645;28;20181;-71
2023/08/14 00:50:54;;;;;;;9.02;1.75;;;19.30;99.90;;;18.92;100.00;97811.06;5003795;28;20491;-71
2023/08/14 00:53:27;;;;;;;2.97;1.58;;;19.30;99.90;;;18.98;100.00;97813.25;5007050;28;20104;-71
2023/08/14 00:55:55;;;;;;;5.32;1.90;;;19.40;99.90;;;19.05;100.00;97816.28;5012652;28;20054;-71
2023/08/14 00:58:23;;;;;;;3.78;1.60;;;19.50;99.90;;;19.07;100.00;97816.16;5006719;28;20050;-71
2023/08/14 01:00:50;;;;;;;4.25;1.98;;;19.60;99.90;;;19.11;100.00;97821.09;5005254;28;20607;-72
2023/08/14 01:03:20;;;;;;;4.65;2.10;;;19.60;99.90;;;19.14;100.00;97820.03;5014931;28;20526;-71
2023/08/14 01:05:47;;;;;;;7.05;1.60;;;19.70;99.90;;;19.32;100.00;97821.31;5015718;28;20154;-71
2023/08/14 01:08:14;;;;;;;4.70;2.28;;;19.60;99.90;;;19.37;100.00;97813.06;4999710;28;20057;-71
2023/08/14 01:11:03;;;;;;;3.58;1.98;;;19.70;99.90;;;19.39;100.00;97809.38;5016054;28;20061;-71
2023/08/14 01:13:51;;;;;;;4.75;2.13;;;19.80;99.90;;;19.13;100.00;97803.38;5002325;28;20552;-70
2023/08/14 01:16:24;;;;;;;9.90;1.90;;;19.80;99.90;;;19.13;100.00;97803.38;5000811;28;20046;-71
2023/08/14 01:18:53;;;;;;;4.18;1.65;;;19.80;99.90;;;19.22;100.00;97807.13;5002310;28;20053;-71
2023/08/14 01:21:34;;;;;;;4.28;2.13;;;19.70;99.90;;;19.12;100.00;97795.63;5000901;28;20092;-71
2023/08/14 01:24:24;;;;;;;2.30;1.50;;;19.70;99.90;;;19.08;100.00;97787.13;4999585;28;20050;-71
2023/08/14 01:26:52;;;;;;;5.50;1.80;;;19.70;99.90;;;19.04;100.00;97790.09;5015193;28;20054;-71
2023/08/14 01:29:19;;;;;;;7.47;2.00;;;19.60;99.90;;;19.12;100.00;97791.19;5001888;28;20049;-71
2023/08/14 01:31:46;;;;;;;7.25;1.90;;;19.60;99.90;;;19.17;100.00;97791.69;4997939;28;20049;-71
2023/08/14 01:34:14;;;;;;;7.60;1.88;;;19.60;99.90;;;19.21;100.00;97792.31;5000844;28;20061;-71
2023/08/14 01:36:58;;;;;;;4.25;1.60;;;19.60;99.90;;;19.14;100.00;97773.50;5016056;28;20046;-71
2023/08/14 01:39:39;;;;;;;6.55;1.77;;;19.70;99.90;;;19.26;100.00;97768.28;5001641;28;20052;-70
2023/08/14 01:42:22;;;;;;;3.53;1.42;;;19.70;99.90;;;19.28;100.00;97753.22;4996754;28;20115;-71
2023/08/14 01:45:01;;;;;;;3.83;1.55;;;19.70;99.90;;;19.27;100.00;97736.56;5004903;28;20049;-71
2023/08/14 01:47:31;;;;;;;3.80;1.55;;;19.70;99.90;;;19.33;100.00;97735.28;5002140;28;20077;-71
2023/08/14 01:49:59;;;;;;;6.10;1.45;;;19.80;99.90;;;19.19;100.00;97731.06;5031356;28;20132;-71
2023/08/14 01:52:26;;;;;;;5.88;1.73;;;19.70;99.90;;;19.20;100.00;97722.19;5018610;28;20054;-71
2023/08/14 01:54:59;;;;;;;3.83;1.45;;;19.70;99.90;;;19.15;100.00;97716.47;5004738;28;20159;-71
2023/08/14 01:57:27;;;;;;;3.67;1.45;;;19.70;99.90;;;19.20;100.00;97704.66;5001249;28;20133;-71
2023/08/14 01:59:54;;;;;;;3.45;1.38;;;19.70;99.90;;;19.13;100.00;97694.69;5002471;28;20145;-71
2023/08/14 02:02:21;;;;;;;4.97;1.40;;;19.70;99.90;;;19.13;100.00;97702.56;5012247;28;21684;-71
2023/08/14 02:04:48;;;;;;;5.57;1.52;;;19.60;99.90;;;19.18;100.00;97698.66;5000753;28;20101;-71
2023/08/14 02:07:19;;;;;;;2.90;1.20;;;19.60;99.90;;;19.09;100.00;97686.19;5030466;28;20533;-72
2023/08/14 02:09:46;;;;;;;5.18;1.80;;;19.70;99.90;;;19.08;100.00;97678.41;5002912;28;20088;-71
2023/08/14 02:12:13;;;;;;;7.78;1.58;;;19.60;99.90;;;19.04;100.00;97680.44;5016606;28;20050;-71
2023/08/14 02:14:40;;;;;;;4.75;1.52;;;19.60;99.90;;;19.18;100.00;97680.25;5002682;28;20084;-71
2023/08/14 02:17:07;;;;;;;4.10;1.20;;;19.60;99.90;;;19.23;100.00;97666.72;5012678;28;20046;-71
2023/08/14 02:19:35;;;;;;;6.10;1.55;;;19.70;99.90;;;19.20;100.00;97672.22;5003979;28;20467;-71
2023/08/14 02:22:02;;;;;;;9.32;1.88;;;19.70;99.90;;;19.19;100.00;97662.66;5000343;28;20050;-71
2023/08/14 02:24:29;;;;;;;5.13;1.48;;;19.70;99.90;;;19.21;100.00;97658.13;5000927;28;20085;-71
2023/08/14 02:26:56;;;;;;;4.18;1.17;;;19.70;99.90;;;19.20;100.00;97644.13;5000290;28;20529;-71
2023/08/14 02:29:23;;;;;;;3.83;1.42;;;19.80;99.90;;;19.15;100.00;97635.72;4999525;28;20145;-71
2023/08/14 02:31:50;;;;;;;6.60;1.60;;;19.80;99.90;;;18.96;100.00;97645.97;5001104;28;20081;-71
2023/08/14 02:34:52;;;;;;;4.38;1.38;;;19.70;99.90;;;18.87;100.00;97649.31;4997306;28;20681;-71
2023/08/14 02:37:20;;;;;;;5.43;1.23;;;19.70;99.90;;;18.90;100.00;97646.44;4997289;28;20054;-69
2023/08/14 02:39:47;;;;;;;6.50;1.23;;;19.60;99.90;;;18.86;100.00;97648.47;5001847;28;20077;-71
2023/08/14 02:42:19;;;;;;;4.82;1.42;;;19.50;99.90;;;18.79;100.00;97648.09;4998758;28;20096;-70
2023/08/14 02:44:47;;;;;;;5.38;1.30;;;19.50;99.90;;;18.78;100.00;97650.84;5014171;28;20518;-71
2023/08/14 02:47:14;;;;;;;3.92;1.45;;;19.40;99.90;;;18.73;100.00;97656.41;4994965;28;20049;-71
2023/08/14 02:49:41;;;;;;;6.13;1.25;;;19.40;99.90;;;18.66;100.00;97655.19;5000086;28;20064;-71
2023/08/14 02:52:08;;;;;;;7.85;1.58;;;19.30;99.90;;;18.58;100.00;97653.09;5000766;28;20504;-71
2023/08/14 02:54:35;;;;;;;4.82;1.10;;;19.30;99.90;;;18.73;100.00;97651.16;5000417;28;20050;-71
2023/08/14 02:57:02;;;;;;;5.60;1.15;;;19.30;99.90;;;18.76;100.00;97642.19;5002974;28;20073;-71
2023/08/14 02:59:30;;;;;;;3.25;1.10;;;19.30;99.90;;;18.63;100.00;97637.00;5000860;28;20113;-70
2023/08/14 03:01:56;;;;;;;5.45;1.70;;;19.30;99.90;;;18.45;100.00;97644.47;5000678;28;20050;-72
2023/08/14 03:04:23;;;;;;;5.28;1.52;;;19.20;99.90;;;18.29;100.00;97643.91;5001605;28;20045;-72
2023/08/14 03:06:51;;;;;;;5.95;1.63;;;19.10;99.90;;;18.27;100.00;97644.03;5001424;28;20530;-71
2023/08/14 03:09:18;;;;;;;4.72;1.40;;;19.10;99.90;;;18.29;100.00;97643.91;5017431;28;20119;-71
2023/08/14 03:11:45;;;;;;;6.25;1.35;;;19.00;99.90;;;18.29;100.00;97644.75;5016568;28;20049;-71
2023/08/14 03:14:12;;;;;;;5.72;1.23;;;19.00;99.90;;;18.08;100.00;97644.50;5006708;28;20151;-71
2023/08/14 03:16:39;;;;;;;3.38;1.23;;;18.90;99.90;;;18.28;100.00;97650.94;5030193;28;20467;-71
2023/08/14 03:19:06;;;;;;;6.32;1.50;;;18.80;99.90;;;18.08;100.00;97647.13;5003563;28;20054;-71
2023/08/14 03:21:34;;;;;;;4.35;1.45;;;18.70;99.90;;;18.08;100.00;97662.06;4995436;28;20138;-71
2023/08/14 03:24:00;;;;;;;7.00;1.50;;;18.70;99.90;;;18.10;100.00;97660.16;4996727;28;20081;-71
2023/08/14 03:26:30;;;;;;;5.18;1.30;;;18.70;99.90;;;18.22;100.00;97661.88;4997312;28;20056;-71
2023/08/14 03:28:57;;;;;;;4.72;1.65;;;18.70;99.90;;;18.23;100.00;97652.25;4996081;28;20058;-71
2023/08/14 03:31:24;;;;;;;4.50;1.73;;;18.80;99.90;;;18.30;100.00;97653.47;4996090;28;20074;-71
2023/08/14 03:33:51;;;;;;;3.80;1.30;;;18.80;99.90;;;17.93;100.00;97643.81;4998395;28;20042;-71
2023/08/14 03:36:19;;;;;;;6.55;1.40;;;18.80;99.90;;;17.94;100.00;97656.00;4998042;28;20125;-71
2023/08/14 03:38:45;;;;;;;4.40;1.45;;;18.70;99.90;;;18.02;100.00;97654.59;5000235;28;20050;-70
2023/08/14 03:41:13;;;;;;;2.78;1.00;;;18.70;99.90;;;18.17;100.00;97650.88;4996079;28;20163;-71
2023/08/14 03:43:40;;;;;;;14.80;1.88;;;18.60;99.90;;;18.03;100.00;97654.50;4998732;28;20181;-71
2023/08/14 03:46:07;;;;;;;4.90;1.35;;;18.60;99.90;;;17.98;100.00;97646.13;4996950;28;20486;-71
2023/08/14 03:48:34;;;;;;;5.50;1.30;;;18.60;99.90;;;17.81;100.00;97655.19;5002313;28;20054;-71
2023/08/14 03:51:01;;;;;;;6.43;1.23;;;18.50;99.90;;;17.91;100.00;97658.84;5003684;28;20057;-71
2023/08/14 03:53:28;;;;;;;6.18;1.30;;;18.50;99.90;;;17.94;100.00;97655.16;4983198;28;20115;-71
2023/08/14 03:55:55;;;;;;;8.77;1.73;;;18.50;99.90;;;17.72;100.00;97661.06;5034206;28;20046;-71
2023/08/14 03:58:22;;;;;;;8.13;1.48;;;18.50;99.90;;;17.70;100.00;97662.97;5001331;28;20049;-71
2023/08/14 04:00:49;;;;;;;6.57;1.35;;;18.50;99.90;;;17.80;100.00;97669.25;5003909;28;20129;-71
2023/08/14 04:03:17;;;;;;;6.45;1.60;;;18.40;99.90;;;17.57;100.00;97670.84;5004119;28;20053;-71
2023/08/14 04:05:44;;;;;;;6.65;1.60;;;18.40;99.90;;;17.59;100.00;97682.09;4995626;28;20050;-71
2023/08/14 04:08:12;;;;;;;11.68;1.27;;;18.30;99.90;;;17.71;100.00;97686.47;5003048;28;20046;-71
2023/08/14 04:10:39;;;;;;;3.33;1.13;;;18.20;99.90;;;17.69;100.00;97693.63;5002346;28;20104;-71
2023/08/14 04:13:06;;;;;;;3.88;1.25;;;18.30;99.90;;;17.64;100.00;97679.97;5006982;28;20088;-71
2023/08/14 04:15:33;;;;;;;7.10;1.48;;;18.30;99.90;;;17.68;100.00;97685.88;5003174;28;20045;-70
2023/08/14 04:18:00;;;;;;;4.78;1.50;;;18.30;99.90;;;17.70;100.00;97691.84;5005301;28;20129;-71
2023/08/14 04:20:27;;;;;;;4.53;1.45;;;18.30;99.90;;;17.55;100.00;97684.06;5003783;28;20092;-71
2023/08/14 04:22:54;;;;;;;8.30;1.52;;;18.30;99.90;;;17.35;100.00;97684.59;5005182;28;20053;-71
2023/08/14 04:25:22;;;;;;;4.32;1.17;;;18.20;99.90;;;17.29;100.00;97685.88;5006242;28;20061;-71
2023/08/14 04:27:48;;;;;;;3.58;1.20;;;18.20;99.90;;;17.51;100.00;97685.22;5007150;28;20589;-71
2023/08/14 04:30:15;;;;;;;4.70;1.63;;;18.10;99.90;;;17.61;100.00;97674.09;5001008;28;20049;-71
2023/08/14 04:32:42;;;;;;;8.10;1.48;;;18.20;99.90;;;17.51;100.00;97674.72;5003915;28;20049;-70
2023/08/14 04:35:13;;;;;;;5.13;1.10;;;18.20;99.90;;;17.54;100.00;97668.44;4999956;28;20050;-71
2023/08/14 04:37:41;;;;;;;8.98;1.10;;;18.20;99.90;;;17.66;100.00;97672.84;5007147;28;20056;-70
2023/08/14 04:40:09;;;;;;;3.70;1.27;;;18.20;99.90;;;17.69;100.00;97666.53;5018749;28;20486;-71
2023/08/14 04:42:36;;;;;;;7.43;1.48;;;18.20;99.90;;;17.66;100.00;97669.38;5003900;28;20144;-70
2023/08/14 04:45:07;;;;;;;5.68;1.30;;;18.30;99.90;;;17.66;100.00;97674.63;4985862;28;20052;-70
2023/08/14 04:47:34;;;;;;;6.45;1.38;;;18.30;99.90;;;17.54;100.00;97669.28;5032646;28;20089;-70
2023/08/14 04:50:01;;;;;;;4.32;1.48;;;18.20;99.90;;;17.42;100.00;97672.75;5002396;28;20112;-69
2023/08/14 04:52:28;;;;;;;6.60;1.95;;;18.20;99.90;;;17.45;100.00;97675.19;5002036;28;20050;-70
2023/08/14 04:54:56;;;;;;;6.28;1.75;;;18.20;99.90;;;17.49;100.00;97674.03;5002660;28;20498;-70
2023/08/14 04:57:23;;;;;;;5.28;1.67;;;18.20;99.90;;;17.50;100.00;97669.59;5001118;28;20100;-70
2023/08/14 04:59:50;;;;;;;3.95;1.65;;;18.20;99.90;;;17.62;100.00;97667.91;5002836;28;20081;-70
2023/08/14 05:02:17;;;;;;;7.82;1.40;;;18.20;99.90;;;17.81;100.00;97668.31;5000040;28;20069;-71
2023/08/14 05:04:46;;;;;;;6.68;1.77;;;18.30;99.90;;;17.84;100.00;97665.50;5001780;28;20057;-71
2023/08/14 05:07:13;;;;;;;4.90;1.30;;;18.30;99.90;;;17.78;100.00;97669.34;4995817;28;20757;-70
2023/08/14 05:09:40;;;;;;;4.68;1.45;;;18.40;99.90;;;17.96;100.00;97661.97;5000813;28;20054;-70
2023/08/14 05:12:08;;;;;;;3.83;1.38;;;18.40;99.90;;;18.00;100.00;97653.91;5032027;28;20152;-71
2023/08/14 05:14:35;;;;;;;3.60;1.30;;;18.50;99.90;;;18.24;100.00;97654.75;5001202;28;20054;-70
2023/08/14 05:17:02;;;;;;;6.05;1.55;;;18.50;99.90;;;18.35;100.00;97651.34;5015675;28;20073;-70
2023/08/14 05:19:32;;;;;;;6.88;1.55;;;18.70;99.90;;;18.47;100.00;97650.44;5018257;28;20049;-71
2023/08/14 05:22:00;;;;;;;3.72;1.60;;;18.60;99.90;;;18.45;100.00;97644.47;5002088;28;20046;-71
2023/08/14 05:24:27;;;;;;;6.82;1.70;;;18.80;99.90;;;18.25;100.00;97645.94;5000718;28;20490;-71
2023/08/14 05:26:54;;;;;;;5.85;1.75;;;18.80;99.90;;;18.35;100.00;97662.69;5017377;28;20053;-70
2023/08/14 05:29:21;;;;;;;5.80;1.60;;;18.80;99.90;;;18.55;100.00;97661.22;5005101;28;20128;-71
2023/08/14 05:31:49;;;;;;;3.03;1.40;;;18.80;99.90;;;18.62;100.00;97666.03;5014379;28;20050;-71
2023/08/14 05:34:16;;;;;;;5.57;1.40;;;18.90;99.90;;;18.57;100.00;97659.34;5015315;28;20101;-71
2023/08/14 05:36:44;;;;;;;4.70;1.63;;;19.00;99.90;;;18.58;100.00;97663.63;5001134;28;20664;-71
2023/08/14 05:39:11;;;;;;;6.53;1.58;;;19.00;99.90;;;18.83;100.00;97666.28;5002076;28;20129;-71
2023/08/14 05:41:39;;;;;;;3.67;1.35;;;19.10;99.90;;;18.82;100.00;97654.91;5000537;28;20141;-72
2023/08/14 05:44:06;;;;;;;7.72;1.92;;;19.20;99.90;;;18.85;100.00;97652.03;4997317;28;20096;-71
2023/08/14 05:46:33;;;;;;;4.38;1.60;;;19.30;99.90;;;19.12;100.00;97656.19;5002512;28;20065;-71
2023/08/14 05:49:00;;;;;;;3.33;1.30;;;19.40;99.90;;;19.33;100.00;97661.59;4999837;28;20116;-72
2023/08/14 05:51:27;;;;;;;4.28;1.40;;;19.50;99.90;;;19.47;100.00;97655.25;5017486;28;20042;-71
2023/08/14 05:53:55;;;;;;;7.65;1.88;;;19.60;99.90;;;19.53;100.00;97649.53;5000240;28;20046;-72
2023/08/14 05:56:22;;;;;;;3.78;1.20;;;19.70;99.90;;;19.63;100.00;97653.94;5003485;28;20065;-71
2023/08/14 05:58:48;;;;;;;5.55;1.50;;;19.90;99.90;;;19.79;100.00;97658.03;5000370;28;20092;-71
2023/08/14 06:01:16;;;;;;;9.82;2.00;;;20.00;99.90;;;19.87;100.00;97642.47;4998802;28;20470;-71
2023/08/14 06:03:43;;;;;;;4.63;1.85;;;20.10;99.90;;;19.82;100.00;97640.22;5000942;28;20140;-71
2023/08/14 06:06:11;;;;;;;10.90;2.33;;;20.20;99.90;;;19.63;100.00;97637.31;4988694;28;20621;-71
2023/08/14 06:08:39;;;;;;;4.72;1.40;;;20.20;99.90;;;19.93;100.00;97638.50;5000775;28;20053;-71
2023/08/14 06:11:06;;;;;;;6.03;1.60;;;20.20;99.90;;;20.13;100.00;97631.63;5003533;28;20528;-71
2023/08/14 06:13:33;;;;;;;4.30;1.65;;;20.40;99.90;;;20.14;100.00;97615.72;5001183;28;20466;-71
2023/08/14 06:16:00;;;;;;;6.60;2.10;;;20.40;99.90;;;20.42;100.00;97608.19;5002609;28;20692;-72
2023/08/14 06:18:28;;;;;;;4.93;1.60;;;20.50;99.90;;;20.52;100.00;97609.09;4998941;28;20065;-72
2023/08/14 06:20:55;;;;;;;4.15;1.58;;;20.70;99.90;;;20.80;100.00;97602.41;4998676;28;20456;-72
2023/08/14 06:23:22;;;;;;;3.85;1.50;;;20.90;99.90;;;21.11;100.00;97594.50;5031125;28;20084;-71
2023/08/14 06:25:49;;;;;;;3.22;1.33;;;21.00;99.90;;;21.23;100.00;97579.41;4997291;28;20046;-72
2023/08/14 06:28:16;;;;;;;4.05;1.67;;;21.20;99.90;;;21.37;100.00;97572.94;5000704;28;20054;-71
2023/08/14 06:30:45;;;;;;;4.78;1.63;;;21.40;99.90;;;21.45;100.00;97562.59;4995657;28;20164;-72
2023/08/14 06:33:12;;;;;;;3.85;1.35;;;21.50;99.90;;;21.87;100.00;97576.50;5032134;28;20046;-72
2023/08/14 06:35:41;;;;;;;2.42;1.30;;;21.60;99.90;;;21.87;100.00;97573.84;5035368;28;20056;-71
2023/08/14 06:38:08;;;;;;;3.67;1.30;;;21.80;99.90;;;21.95;100.00;97573.16;5017611;28;20054;-71
2023/08/14 06:40:35;;;;;;;4.30;1.55;;;21.90;99.90;;;22.08;100.00;97578.19;5002824;28;20073;-72
2023/08/14 06:43:03;;;;;;;4.40;1.52;;;22.00;99.90;;;22.05;100.00;97579.28;5001283;28;20119;-70
2023/08/14 06:45:30;;;;;;;4.95;1.40;;;22.10;99.90;;;22.53;100.00;97580.28;4998161;28;20146;-72
2023/08/14 06:47:57;;;;;;;3.17;1.30;;;22.30;99.90;;;22.66;100.00;97580.84;5003666;28;20054;-72
2023/08/14 06:50:25;;;;;;;3.28;1.48;;;22.50;99.90;;;22.33;100.00;97582.13;4999220;28;20146;-71
2023/08/14 06:52:52;;;;;;;6.55;1.40;;;22.60;99.90;;;22.47;100.00;97579.06;5001197;28;20049;-71
2023/08/14 06:55:20;;;;;;;3.90;1.70;;;22.70;99.90;;;22.62;100.00;97571.50;5033741;28;20054;-71
2023/08/14 06:57:48;;;;;;;5.15;1.30;;;22.80;99.90;;;22.67;100.00;97569.31;5002860;28;20508;-71
2023/08/14 07:00:16;;;;;;;5.07;1.67;;;22.80;99.90;;;22.89;100.00;97562.84;5001808;28;20058;-71
2023/08/14 07:02:46;;;;;;;2.83;1.50;;;22.90;99.90;;;22.83;100.00;97563.44;5003244;28;20061;-71
2023/08/14 07:05:13;;;;;;;5.60;1.20;;;23.10;99.90;;;22.73;100.00;97559.94;5000966;28;20145;-71
2023/08/14 07:07:41;;;;;;;4.30;1.80;;;23.10;99.90;;;22.84;100.00;97566.91;5003311;28;20064;-71
2023/08/14 07:10:09;;;;;;;7.47;1.50;;;23.00;99.90;;;22.51;100.00;97556.66;5014109;28;20060;-71
2023/08/14 07:12:36;;;;;;;2.70;1.35;;;22.90;99.90;;;22.67;100.00;97560.50;4984955;28;20165;-72
2023/08/14 07:15:08;;;;;;;3.05;1.33;;;22.90;99.90;;;22.76;100.00;97549.94;4998068;28;20054;-71
2023/08/14 07:17:35;;;;;;;2.97;1.50;;;23.00;99.90;;;22.88;100.00;97555.88;5000067;28;20236;-71
2023/08/14 07:20:06;;;;;;;4.70;1.42;;;23.10;99.90;;;23.29;100.00;97551.19;4985505;28;20043;-71
2023/08/14 07:22:36;;;;;;;3.72;1.65;;;23.20;99.90;;;23.54;100.00;97544.38;5001730;28;20049;-72
2023/08/14 07:25:05;;;;;;;2.88;1.10;;;23.40;99.90;;;23.51;100.00;97546.47;4991901;28;20589;-71
2023/08/14 07:27:32;;;;;;;6.43;1.30;;;23.60;99.90;;;23.30;100.00;97544.91;5001954;28;20054;-71
2023/08/14 07:29:59;;;;;;;3.90;1.42;;;23.60;99.90;;;23.31;100.00;97551.00;5018489;28;20054;-71
2023/08/14 07:32:26;;;;;;;3.55;1.42;;;23.60;99.90;;;23.30;100.00;97544.91;5012343;28;20081;-70
2023/08/14 07:34:53;;;;;;;4.15;1.35;;;23.50;99.90;;;23.69;100.00;97535.91;5001917;28;20149;-70
2023/08/14 07:37:20;;;;;;;4.88;1.50;;;23.60;99.90;;;23.26;100.00;97555.91;5001863;28;20498;-70
2023/08/14 07:39:48;;;;;;;3.88;1.60;;;23.70;99.90;;;23.11;100.00;97580.22;4990890;28;20049;-70
2023/08/14 07:42:15;;;;;;;5.07;1.70;;;23.60;99.90;;;22.71;100.00;97591.00;5002607;28;20046;-71
2023/08/14 07:44:42;;;;;;;3.13;1.50;;;23.40;99.90;;;22.98;100.00;97604.31;5007673;28;20053;-70
2023/08/14 07:47:10;;;;;;;3.40;1.45;;;23.30;99.90;;;22.94;100.00;97613.56;5002104;28;20085;-70
2023/08/14 07:49:39;;;;;;;4.75;1.67;;;23.10;99.90;;;22.82;100.00;97621.78;5003845;28;20053;-70
2023/08/14 07:52:06;;;;;;;3.17;1.58;;;22.90;99.90;;;22.86;100.00;97621.34;5016573;28;20054;-70
2023/08/14 07:54:33;;;;;;;5.53;1.83;;;22.90;99.90;;;23.06;100.00;97637.22;5003145;28;20047;-71
2023/08/14 07:57:00;;;;;;;4.40;1.60;;;23.10;99.90;;;23.32;100.00;97632.97;5004276;28;20119;-71
2023/08/14 07:59:27;;;;;;;4.65;1.85;;;23.30;99.90;;;23.41;100.00;97631.28;5016081;28;20051;-71
2023/08/14 08:01:54;;;;;;;3.25;1.48;;;23.50;99.90;;;23.53;100.00;97627.47;5006512;28;20163;-71
2023/08/14 08:04:21;;;;;;;3.63;1.50;;;23.60;99.90;;;23.51;100.00;97621.47;5003414;28;20050;-70
2023/08/14 08:06:52;;;;;;;3.03;1.70;;;23.80;99.90;;;23.21;100.00;97613.78;4999828;28;20057;-71
2023/08/14 08:09:19;;;;;;;4.28;1.50;;;23.70;99.90;;;23.55;100.00;97629.97;5002446;28;20649;-71
2023/08/14 08:11:46;;;;;;;3.95;1.55;;;23.70;99.90;;;23.67;100.00;97626.16;5002762;28;20128;-71
2023/08/14 08:14:16;;;;;;;3.40;1.70;;;23.90;99.90;;;23.87;100.00;97637.53;5003935;28;20136;-71
2023/08/14 08:16:44;;;;;;;4.07;1.50;;;;;;;23.92;100.00;97639.75;4998727;28;20578;-69
2023/08/14 08:19:11;;;;;;;4.03;1.48;;;24.20;99.90;;;23.91;100.00;97649.50;5014264;28;20074;-71
2023/08/14 08:21:39;;;;;;;4.68;1.60;;;24.10;99.90;;;23.88;100.00;97641.00;5009522;28;20046;-70
2023/08/14 08:24:07;;;;;;;6.88;1.85;;;24.20;99.90;;;23.67;100.00;97651.81;5001697;28;20442;-70
2023/08/14 08:26:35;;;;;;;2.45;1.45;;;24.10;99.90;;;24.21;100.00;97661.63;5002287;28;20058;-70
2023/08/14 08:29:03;;;;;;;1.85;1.17;;;24.20;99.90;;;24.44;100.00;97653.22;5034508;28;20054;-71
2023/08/14 08:31:30;;;;;;;2.95;1.55;;;24.40;99.90;;;23.75;100.00;97652.78;5001148;28;20813;-71
2023/08/14 08:33:57;;;;;;;2.33;1.50;;;24.30;99.90;;;23.75;100.00;97665.22;5001279;28;20061;-71
2023/08/14 08:36:24;;;;;;;4.85;1.80;;;24.10;99.90;;;23.55;100.00;97669.72;5006036;28;20470;-70
2023/08/14 08:38:51;;;;;;;4.03;1.90;;;23.90;99.90;;;23.29;100.00;97669.53;5018217;28;20077;-71
2023/08/14 08:41:55;;;;;;;5.28;1.73;;;23.40;99.90;;;23.41;100.00;97684.25;5002868;28;20972;-71
2023/08/14 08:44:26;;;;;;;4.60;1.98;;;23.50;99.90;;;23.42;100.00;97698.34;4998218;28;20942;-71
2023/08/14 08:47:06;;;;;;;4.07;2.08;;;23.60;99.90;;;23.78;100.00;97694.91;5015704;28;20042;-71
2023/08/14 08:49:35;;;;;;;3.05;1.73;;;23.80;99.90;;;23.25;100.00;97695.44;4999918;28;20076;-71
2023/08/14 08:52:03;;;;;;;3.03;1.67;;;23.70;99.90;;;23.37;100.00;97698.78;4981767;28;20425;-71
2023/08/14 08:54:31;;;;;;;4.43;1.80;;;23.70;99.90;;;23.53;100.00;97700.81;4997637;28;20053;-71
2023/08/14 08:57:00;;;;;;;7.57;2.10;;;23.90;99.90;;;23.06;100.00;97700.75;5016869;28;20050;-72
2023/08/14 08:59:27;;;;;;;6.15;2.13;;;23.90;99.90;;;22.89;100.00;97712.88;5001893;28;20160;-71
2023/08/14 09:01:54;;;;;;;4.38;1.58;;;23.60;99.90;;;22.79;100.00;97719.97;5001133;28;20092;-72
2023/08/14 09:04:24;;;;;;;3.60;1.98;;;23.40;99.90;;;22.78;100.00;97721.78;5002905;28;20454;-72
2023/08/14 09:06:52;;;;;;;4.80;2.38;;;23.40;99.90;;;23.06;100.00;97717.50;5000434;28;20064;-72
2023/08/14 09:09:20;;;;;;;4.82;2.22;;;23.30;99.90;;;23.20;100.00;97708.28;4996876;28;20137;-72
2023/08/14 09:11:47;;;;;;;3.20;1.58;;;23.20;99.90;;;23.27;100.00;97698.78;5001741;28;20066;-72
2023/08/14 09:14:15;;;;;;;4.18;1.65;;;23.40;99.90;;;23.51;100.00;97700.13;4998245;28;20137;-72
2023/08/14 09:16:44;;;;;;;5.43;1.80;;;23.50;99.90;;;23.76;100.00;97685.44;4999507;28;20112;-71
2023/08/14 09:19:14;;;;;;;5.65;2.00;;;23.50;99.90;;;23.85;100.00;97675.78;4999444;28;20046;-73
2023/08/14 09:21:44;;;;;;;3.20;1.90;;;23.40;99.90;;;23.97;100.00;97666.63;4999319;28;20065;-72
2023/08/14 09:24:16;;;;;;;3.53;1.83;;;23.50;99.90;;;24.08;100.00;97674.38;4998899;28;20120;-73
2023/08/14 09:26:43;;;;;;;4.45;1.85;;;23.70;99.90;;;24.31;100.00;97656.25;4997615;28;20054;-72
2023/08/14 09:29:14;;;;;;;5.10;1.92;;;24.10;99.90;;;24.62;100.00;97643.47;5004973;28;20513;-73
2023/08/14 09:31:46;;;;;;;3.03;1.55;;;24.40;99.90;;;25.33;100.00;97630.25;5017142;28;20519;-73
2023/08/14 09:34:18;;;;;;;5.18;1.92;;;24.80;99.90;;;25.48;100.00;97622.53;4998298;28;20050;-72
2023/08/14 09:36:46;;;;;;;;;;;25.10;99.90;;;25.34;100.00;97611.53;5029269;28;20054;-73
2023/08/14 09:39:16;;;;;;;5.78;1.90;;;25.20;99.90;;;25.76;100.00;97610.72;5000873;28;19933;-73
2023/08/14 09:41:48;;;;;;;6.25;1.92;;;25.50;99.90;;;25.32;100.00;97597.56;4998807;28;20479;-72
2023/08/14 09:44:20;;;;;;;3.60;1.92;;;25.30;99.90;;;25.34;100.00;97600.03;5030680;28;20485;-72
2023/08/14 09:46:54;;;;;;;4.28;1.83;;;25.30;99.90;;;25.73;100.00;97599.53;5000034;28;20146;-73
2023/08/14 09:49:22;;;;;;;2.83;1.30;;;25.50;99.90;;;25.80;100.00;97601.41;4999798;28;20058;-72
2023/08/14 09:51:58;;;;;;;4.20;1.60;;;25.30;99.90;;;25.61;100.00;97606.97;4999108;28;20045;-72
2023/08/14 09:54:34;;;;;;;5.32;1.88;;;25.50;99.90;;;25.14;100.00;97607.38;5011064;28;20046;-71
2023/08/14 09:57:05;;;;;;;4.40;2.25;;;25.50;99.90;;;25.35;100.00;97613.16;5002222;28;20078;-72
2023/08/14 09:59:36;;;;;;;3.83;1.85;;;25.70;99.90;;;25.18;100.00;97616.69;4995190;28;20123;-73
2023/08/14 10:02:17;;;;;;;4.53;2.40;;;25.60;99.90;;;25.39;100.00;97646.41;5030161;28;20124;-73
2023/08/14 10:04:46;;;;;;;7.35;2.40;;;25.30;99.90;;;25.58;100.00;97636.53;5002433;28;20046;-73
2023/08/14 10:07:16;;;;;;;7.38;2.25;;;25.20;99.90;;;25.28;100.00;97648.50;5002205;28;20045;-73
2023/08/14 10:09:56;;;;;;;4.07;2.22;;;25.40;99.90;;;25.63;100.00;97645.69;5015927;28;20050;-73
2023/08/14 10:12:30;;;;;;;7.72;2.30;;;25.50;99.90;;;25.41;100.00;97652.41;4999074;28;20100;-73
2023/08/14 10:15:10;;;;;;;8.40;2.42;;;25.50;99.90;;;25.38;100.00;97654.53;5004125;28;20054;-74
2023/08/14 10:17:56;;;;;;;4.53;1.83;;;25.30;99.90;;;25.37;100.00;97663.50;5000057;28;20057;-73
2023/08/14 10:20:24;;;;;;;6.22;2.53;;;25.30;99.90;;;25.29;100.00;97671.41;4986946;28;20061;-73